Sherman, TX (75090)

4:42 PM CDT on September 01, 2015 (GMT -0500)
Forest Creek | | Change Station
CLOSE
Current Station
Personal Weather Station
Location: Sherman, TX
Elevation: 801 ft
Nearby Weather Stations

Elev 801 ft 33.68 °N, 96.62 °W | Updated 0 second ago

Partly Cloudy
Partly Cloudy
94.3 °F
Feels Like 97 °F
N
3.1
Wind Variable Wind from West
Gusts 6.0 mph

Today
High -- | Low -- °F
--% Chance of Precip.
Yesterday
High -- | Low -- °F
Precip. -- in
7:00 AM 7:52 PM
Waning Gibbous, 86% visible
Pressure 29.99 in
Visibility 10.0 miles
Clouds Mostly Cloudy 7000 ft
Overcast 8000 ft
Heat Index 97 °F
Dew Point 66 °F
Humidity 39%
Rainfall 0.00 in
Snow Depth Not available.
UV 2 out of 12
Pollen 9.10 out of 12
Air Quality Not available.
Flu Activity Not available.
METAR KGYI 012135Z AUTO 14010G15KT 10SM BKN070 OVC080 35/18 A2999 RMK AO2 T03530182
Pressure 29.99 in
Visibility 10.0 miles
Clouds Mostly Cloudy 7000 ft
Overcast 8000 ft
Heat Index 97 °F
Dew Point 66 °F
Humidity 39%
Rainfall 0.00 in
Snow Depth Not available.
UV 2 out of 12
Pollen 9.10 out of 12
Air Quality Not available.
Flu Activity Not available.
METAR KGYI 012135Z AUTO 14010G15KT 10SM BKN070 OVC080 35/18 A2999 RMK AO2 T03530182
Nowcast | as of 2:57 PM CDT on September 1, 2015

Scattered showers and thunderstorms will affect areas southeast of a Lampasas to Waco to Athens line through 5 PM. Brief heavy rain...cloud to ground lightning and wind gusts over 35 mph will accompany some of these storms as they move north at 15 to 20 mph. Otherwise...expect mostly sunny skies with temperatures remaining in the lower to middle 90s through 6 PM.

×

10-Day Weather Forecast

×

Almanac

Astronomy

Sep. 01, 2015 Rise Set
Actual Time
Civil Twilight
Nautical Twilight
Astronomical Twilight
Moon
Length of Visible Light
Length of Day
Tomorrow will be .
, % of the Moon is Illuminated

Today's Extremes

State Highs State Lows

Community

WunderPhotos

Upload Photos

1,851,628 photos uploaded!

WunderBlogs® & News

Nearby

Air Quality

  Air Quality AQ Index Pollutant
Not available.

Snow Depth

Station Depth Elevation

Earthquake Activity

City Distance Mag. Time & Date
Minimum magnitude displayed is 2.5.

Coastal Water Temperatures

Place Temperature

Stations

Nearby Weather Stations

Station Location Temp. Windchill Dew Point Humidity Wind Precip. Elev Updated Type